Etusivu
METAR-TAF:

METAR-TAF

Lentoasemat :

Ventspils, Latvia

Leveyspiiri: 57-21-28N, Pituuspiiri: 021-32-39E, korkeus merenpinnasta: 6 m

Tämänhetkinen sää

Tämä raportti tehtiin 19 minuuttia sitten, kello 03.20 UTC
Tuuli 5 kn luoteesta
Lämpötila 11°C
Kosteus 94%
Ilmanpaine 1010 hPa
Näkyvyys 10 km tai enemmän
Muutamia pilviä 1100 ft:n korkeudessa
Hajonneita pilviä 3500 ft:n korkeudessa
Pilvistä 4400 ft:n korkeudessa

METAR: EVVA 250320Z AUTO 31005KT 9999 FEW011 BKN035 OVC044 11/10 Q1010

Aika: 06:39 (03:39 UTC)


TAF: puuttuu

Säähavainnot ja -ennusteet yli 4000 lentoasemalta (METAR- ja TAF-raportit).

Käytössä olevat sääasemat on merkitty karttaan keltaisilla ja punaisilla pisteillä.

Aseta hiiri pisteen päälle nähdäksesi sääaseman nimen.

Klikkaa sitten nähdäksesi säähavainnot ja -ennusteet.

Kartan vaihtaminen: klikkaa mustalla rastilla varustettuja vihreitä pisteitä, niin voit zoomata sisään; viivalla varustettua vihreää pistettä, niin voit zoomata ulos tai vihreitä nuolia, niin pääset viereisille kartoille.


METAR-TAF: